Santa Venetia, California
Current Conditions -  °F | °C
As of 10:15 PM on Wednesday 22 Oct 2014 (Local Time) from KDVO Reporting Station
Clear Clear  
Wind Chill: 59°   Ceiling: Unl
Heat Index: 59°   Visibility: 10mi
Dew Point: 55°   Wind: 0mph
Humidity: 88%   Direction: NA
Pressure: 30.05"   Gusts: NA
Location:  38.0232°N, 122.547°W
Report Text: KDVO 230515Z AUTO 00000KT 10SM CLR 15/13 A3005 RMK AO2
Loading
Personal Weather Stations






























Interactive Weather Map
Tropical Storm Tracking
New forecast layout! Learn more

10-Day Weather Forecast

Advertisements
Track Severe Weather on mobile